Time;durP1;ratioP1;P1;durP2;ratioP2;P2;SDS_P1;SDS_P2;PMS_P1;PMS_P2;Temp;Humidity;BMP_temperature;BMP_pressure;BME280_temperature;BME280_humidity;BME280_pressure;Samples;Min_cycle;Max_cycle;Signal;HPM_P1;HPM_P2
2023/03/15 00:00:53;;;;;;;12.25;2.33;;;;;;;;;;5076874;28;20067;-80
2023/03/15 00:03:19;;;;;;;11.90;2.10;;;;;;;;;;5085620;28;20049;-79
2023/03/15 00:05:46;;;;;;;12.30;2.33;;;;;;;;;;5077678;28;20056;-79
2023/03/15 00:08:13;;;;;;;12.35;2.53;;;;;;;;;;5083332;28;20064;-79
2023/03/15 00:10:43;;;;;;;13.85;2.15;;;;;;;;;;5084011;28;20632;-79
2023/03/15 00:13:09;;;;;;;10.80;2.30;;;;;;;;;;5091729;28;20509;-80
2023/03/15 00:15:36;;;;;;;11.82;2.25;;;;;;;;;;5085019;28;20048;-80
2023/03/15 00:18:02;;;;;;;11.15;2.30;;;;;;;;;;5073651;28;20105;-80
2023/03/15 00:20:29;;;;;;;9.88;1.95;;;;;;;;;;5087371;28;20500;-80
2023/03/15 00:22:55;;;;;;;12.93;2.42;;;;;;;;;;5093952;28;20498;-80
2023/03/15 00:25:21;;;;;;;13.18;1.90;;;;;;;;;;5094701;28;20131;-80
2023/03/15 00:27:47;;;;;;;10.32;2.15;;;;;;;;;;5094454;28;20082;-80
2023/03/15 00:30:13;;;;;;;12.38;2.60;;;;;;;;;;5094023;28;20082;-80
2023/03/15 00:32:39;;;;;;;11.05;2.00;;;;;;;;;;5093040;28;20052;-80
2023/03/15 00:35:06;;;;;;;9.85;2.00;;;;;;;;;;5093690;28;20059;-80
2023/03/15 00:37:32;;;;;;;13.00;2.38;;;;;;;;;;5078278;28;20037;-79
2023/03/15 00:39:58;;;;;;;11.45;2.45;;;;;;;;;;5082439;28;20052;-80
2023/03/15 00:42:26;;;;;;;14.52;2.42;;;;;;;;;;5073356;28;20048;-80
2023/03/15 00:44:56;;;;;;;11.35;2.17;;;;;;;;;;5075851;28;20049;-80
2023/03/15 00:47:23;;;;;;;10.32;2.00;;;;;;;;;;5094034;28;20040;-80
2023/03/15 00:49:49;;;;;;;10.85;2.30;;;;;;;;;;5082263;28;20040;-80
2023/03/15 00:52:15;;;;;;;12.68;2.10;;;;;;;;;;5073994;28;20478;-80
2023/03/15 00:54:43;;;;;;;16.80;2.70;;;;;;;;;;5071889;28;20051;-79
2023/03/15 00:57:09;;;;;;;12.27;2.38;;;;;;;;;;5071624;28;20051;-80
2023/03/15 00:59:35;;;;;;;7.95;2.10;;;;;;;;;;5081821;28;20036;-80
2023/03/15 01:02:01;;;;;;;9.48;2.33;;;;;;;;;;5074707;28;20474;-80
2023/03/15 01:04:28;;;;;;;11.95;1.98;;;;;;;;;;5089691;28;20048;-80
2023/03/15 01:06:54;;;;;;;12.55;2.10;;;;;;;;;;5080215;28;20098;-80
2023/03/15 01:09:20;;;;;;;8.82;1.80;;;;;;;;;;5069874;28;20506;-80
2023/03/15 01:11:46;;;;;;;11.70;2.50;;;;;;;;;;5074333;28;20139;-80
2023/03/15 01:14:12;;;;;;;12.70;2.33;;;;;;;;;;5076262;28;20123;-80
2023/03/15 01:16:38;;;;;;;14.82;2.20;;;;;;;;;;5089752;28;20044;-80
2023/03/15 01:19:04;;;;;;;10.98;1.85;;;;;;;;;;5091833;28;20024;-80
2023/03/15 01:21:31;;;;;;;13.70;2.17;;;;;;;;;;5094897;28;20105;-80
2023/03/15 01:23:57;;;;;;;10.38;1.63;;;;;;;;;;5096789;28;20048;-80
2023/03/15 01:26:23;;;;;;;10.82;1.77;;;;;;;;;;5096783;28;20043;-80
2023/03/15 01:28:49;;;;;;;10.85;1.80;;;;;;;;;;5094856;28;20182;-80
2023/03/15 01:31:19;;;;;;;10.40;1.63;;;;;;;;;;5096656;28;20040;-80
2023/03/15 01:33:45;;;;;;;13.50;2.10;;;;;;;;;;5095847;28;20047;-80
2023/03/15 01:36:12;;;;;;;14.10;2.15;;;;;;;;;;5102487;28;20052;-80
2023/03/15 01:38:38;;;;;;;12.13;1.65;;;;;;;;;;5106088;28;20071;-80
2023/03/15 01:41:04;;;;;;;11.30;2.00;;;;;;;;;;5098355;28;20040;-80
2023/03/15 01:43:31;;;;;;;11.88;1.80;;;;;;;;;;5090190;28;20040;-80
2023/03/15 01:46:06;;;;;;;11.45;1.83;;;;;;;;;;5093799;28;20044;-80
2023/03/15 01:48:43;;;;;;;9.48;1.80;;;;;;;;;;5081419;28;20045;-79
2023/03/15 01:51:30;;;;;;;8.35;1.80;;;;;;;;;;5103325;28;20044;-80
2023/03/15 01:53:59;;;;;;;11.90;2.08;;;;;;;;;;5084164;28;20045;-80
2023/03/15 01:56:26;;;;;;;12.52;1.80;;;;;;;;;;5089601;28;20057;-80
2023/03/15 01:58:53;;;;;;;9.95;1.67;;;;;;;;;;5092990;28;20131;-81
2023/03/15 02:01:20;;;;;;;14.98;1.90;;;;;;;;;;5079211;28;20045;-80
2023/03/15 02:03:47;;;;;;;12.63;1.75;;;;;;;;;;5093525;28;20055;-80
2023/03/15 02:06:17;;;;;;;14.07;1.98;;;;;;;;;;5096168;28;20173;-79
2023/03/15 02:08:46;;;;;;;10.95;1.63;;;;;;;;;;5101077;28;20048;-80
2023/03/15 02:11:13;;;;;;;13.60;1.85;;;;;;;;;;5104719;28;20056;-80
2023/03/15 02:13:39;;;;;;;11.25;1.60;;;;;;;;;;5102501;28;20050;-80
2023/03/15 02:16:05;;;;;;;8.27;1.30;;;;;;;;;;5104968;28;20071;-81
2023/03/15 02:18:34;;;;;;;11.52;1.55;;;;;;;;;;5068841;28;20045;-80
2023/03/15 02:21:19;;;;;;;8.77;1.50;;;;;;;;;;5085835;28;20051;-80
2023/03/15 02:23:47;;;;;;;12.05;1.30;;;;;;;;;;5086760;28;20036;-80
2023/03/15 02:26:36;;;;;;;15.98;1.70;;;;;;;;;;5085675;28;20071;-81
2023/03/15 02:29:02;;;;;;;11.70;1.48;;;;;;;;;;5093493;28;20560;-80
2023/03/15 02:31:28;;;;;;;12.65;1.50;;;;;;;;;;5104439;28;20075;-79
2023/03/15 02:33:54;;;;;;;11.23;1.30;;;;;;;;;;5105547;28;20044;-80
2023/03/15 02:36:25;;;;;;;10.73;1.73;;;;;;;;;;5087714;28;20052;-80
2023/03/15 02:38:52;;;;;;;11.57;1.67;;;;;;;;;;5078514;28;20041;-80
2023/03/15 02:41:21;;;;;;;13.85;1.42;;;;;;;;;;5075357;28;20318;-80
2023/03/15 02:43:49;;;;;;;11.02;1.40;;;;;;;;;;5076601;28;20075;-79
2023/03/15 02:46:15;;;;;;;6.93;1.40;;;;;;;;;;5075949;28;20051;-79
2023/03/15 02:48:41;;;;;;;10.68;2.00;;;;;;;;;;5075671;28;20044;-80
2023/03/15 02:51:15;;;;;;;11.85;1.50;;;;;;;;;;5077404;28;20153;-80
2023/03/15 02:53:42;;;;;;;12.00;1.50;;;;;;;;;;5076537;28;20044;-79
2023/03/15 02:56:08;;;;;;;9.25;1.27;;;;;;;;;;5086442;28;20051;-80
2023/03/15 02:58:34;;;;;;;8.90;1.30;;;;;;;;;;5078697;28;20044;-80
2023/03/15 03:01:00;;;;;;;12.07;1.50;;;;;;;;;;5074347;28;20448;-80
2023/03/15 03:03:26;;;;;;;10.88;1.58;;;;;;;;;;5074155;28;20045;-80
2023/03/15 03:05:52;;;;;;;11.32;1.55;;;;;;;;;;5083819;28;20079;-79
2023/03/15 03:08:18;;;;;;;8.88;1.30;;;;;;;;;;5077037;28;20044;-80
2023/03/15 03:10:44;;;;;;;13.10;2.05;;;;;;;;;;5089895;28;20079;-79
2023/03/15 03:13:10;;;;;;;11.48;1.58;;;;;;;;;;5082561;28;20044;-80
2023/03/15 03:15:36;;;;;;;9.00;1.58;;;;;;;;;;5075804;28;20183;-79
2023/03/15 03:18:02;;;;;;;9.50;1.30;;;;;;;;;;5078778;28;20055;-79
2023/03/15 03:20:28;;;;;;;13.40;1.80;;;;;;;;;;5081325;28;20036;-79
2023/03/15 03:22:54;;;;;;;9.88;1.42;;;;;;;;;;5079676;28;20043;-79
2023/03/15 03:25:21;;;;;;;13.98;1.67;;;;;;;;;;5086256;28;20410;-79
2023/03/15 03:27:47;;;;;;;14.15;1.83;;;;;;;;;;5092819;28;20047;-80
2023/03/15 03:30:13;;;;;;;12.75;1.67;;;;;;;;;;5093800;28;20094;-80
2023/03/15 03:32:40;;;;;;;13.02;1.63;;;;;;;;;;5095307;28;20044;-79
2023/03/15 03:35:06;;;;;;;13.63;1.75;;;;;;;;;;5075428;28;20062;-79
2023/03/15 03:37:34;;;;;;;9.77;1.30;;;;;;;;;;5074010;28;20048;-79
2023/03/15 03:40:01;;;;;;;7.85;1.40;;;;;;;;;;5091007;28;20055;-79
2023/03/15 03:42:27;;;;;;;12.35;1.55;;;;;;;;;;5073819;28;20048;-79
2023/03/15 03:44:53;;;;;;;8.07;1.35;;;;;;;;;;5081060;28;20055;-79
2023/03/15 03:47:19;;;;;;;9.80;1.60;;;;;;;;;;5084192;28;20072;-79
2023/03/15 03:49:45;;;;;;;11.32;1.65;;;;;;;;;;5093367;28;20043;-79
2023/03/15 03:52:12;;;;;;;7.07;1.20;;;;;;;;;;5093289;28;20078;-79
2023/03/15 03:54:38;;;;;;;11.55;1.48;;;;;;;;;;5077072;28;20044;-79
2023/03/15 03:57:04;;;;;;;13.63;1.98;;;;;;;;;;5092970;28;20493;-80
2023/03/15 03:59:30;;;;;;;10.30;1.60;;;;;;;;;;5081414;28;20047;-79
2023/03/15 04:01:56;;;;;;;11.00;1.35;;;;;;;;;;5073694;28;20044;-79
2023/03/15 04:04:25;;;;;;;9.63;1.30;;;;;;;;;;5074668;28;20496;-79
2023/03/15 04:06:51;;;;;;;13.27;1.95;;;;;;;;;;5073128;28;20056;-79
2023/03/15 04:09:17;;;;;;;12.40;1.70;;;;;;;;;;5072361;28;20067;-80
2023/03/15 04:11:43;;;;;;;12.07;1.73;;;;;;;;;;5072783;28;20401;-79
2023/03/15 04:14:10;;;;;;;12.82;1.83;;;;;;;;;;5079758;28;20044;-79
2023/03/15 04:16:36;;;;;;;12.23;1.48;;;;;;;;;;5072339;28;20076;-78
2023/03/15 04:19:02;;;;;;;10.23;1.55;;;;;;;;;;5077315;28;20044;-79
2023/03/15 04:21:32;;;;;;;11.68;1.40;;;;;;;;;;5086855;28;20040;-79
2023/03/15 04:23:58;;;;;;;12.55;1.40;;;;;;;;;;5083453;28;20518;-79
2023/03/15 04:26:25;;;;;;;9.55;1.60;;;;;;;;;;5094956;28;20051;-79
2023/03/15 04:28:55;;;;;;;9.65;1.77;;;;;;;;;;5076251;28;20127;-80
2023/03/15 04:31:25;;;;;;;11.02;1.45;;;;;;;;;;5093235;28;20066;-79
2023/03/15 04:33:51;;;;;;;11.60;1.80;;;;;;;;;;5091762;28;20052;-78
2023/03/15 04:36:18;;;;;;;8.00;1.73;;;;;;;;;;5077538;28;20047;-79
2023/03/15 04:38:47;;;;;;;13.63;1.70;;;;;;;;;;5081687;28;20052;-80
2023/03/15 04:41:14;;;;;;;14.20;1.67;;;;;;;;;;5091093;28;20040;-79
2023/03/15 04:43:41;;;;;;;10.70;1.25;;;;;;;;;;5086057;28;20051;-80
2023/03/15 04:46:07;;;;;;;11.43;1.67;;;;;;;;;;5090639;28;20090;-79
2023/03/15 04:48:33;;;;;;;12.70;1.65;;;;;;;;;;5073552;28;20056;-79
2023/03/15 04:50:59;;;;;;;10.07;1.65;;;;;;;;;;5073543;28;20068;-78
2023/03/15 04:53:25;;;;;;;11.35;1.30;;;;;;;;;;5094376;28;20485;-79
2023/03/15 04:55:51;;;;;;;7.20;1.42;;;;;;;;;;5083217;28;20127;-79
2023/03/15 04:58:18;;;;;;;9.57;1.60;;;;;;;;;;5095609;28;20523;-79
2023/03/15 05:00:44;;;;;;;10.57;1.50;;;;;;;;;;5097048;28;20386;-79
2023/03/15 05:03:10;;;;;;;11.18;1.17;;;;;;;;;;5097187;28;20074;-79
2023/03/15 05:05:36;;;;;;;11.75;1.58;;;;;;;;;;5087179;28;20545;-79
2023/03/15 05:08:02;;;;;;;9.15;1.40;;;;;;;;;;5091670;28;20056;-79
2023/03/15 05:10:32;;;;;;;13.00;1.58;;;;;;;;;;5099046;28;20044;-79
2023/03/15 05:12:58;;;;;;;11.13;1.30;;;;;;;;;;5092459;28;20509;-78
2023/03/15 05:15:24;;;;;;;10.82;1.40;;;;;;;;;;5091583;28;20055;-79
2023/03/15 05:17:53;;;;;;;15.32;1.55;;;;;;;;;;5087941;28;20510;-79
2023/03/15 05:20:20;;;;;;;9.60;1.80;;;;;;;;;;5089182;28;20045;-79
2023/03/15 05:22:46;;;;;;;14.48;1.55;;;;;;;;;;5076869;28;20040;-79
2023/03/15 05:25:12;;;;;;;16.25;1.55;;;;;;;;;;5077750;28;20493;-79
2023/03/15 05:27:39;;;;;;;9.88;1.40;;;;;;;;;;5087211;28;20043;-79
2023/03/15 05:30:06;;;;;;;14.10;2.45;;;;;;;;;;5096375;28;20044;-79
2023/03/15 05:32:38;;;;;;;5.13;0.90;;;;;;;;;;5095280;28;20040;-78
2023/03/15 05:35:05;;;;;;;9.88;1.17;;;;;;;;;;5091416;28;20049;-79
2023/03/15 05:37:31;;;;;;;8.85;0.98;;;;;;;;;;5077075;28;20062;-79
2023/03/15 05:39:58;;;;;;;5.85;1.00;;;;;;;;;;5085960;28;20130;-78
2023/03/15 05:42:25;;;;;;;9.52;1.83;;;;;;;;;;5081877;28;20041;-79
2023/03/15 05:44:51;;;;;;;9.82;1.27;;;;;;;;;;5080310;28;20154;-79
2023/03/15 05:47:18;;;;;;;10.77;1.38;;;;;;;;;;5082391;28;20044;-78
2023/03/15 05:49:44;;;;;;;9.85;1.45;;;;;;;;;;5090484;28;20124;-79
2023/03/15 05:52:10;;;;;;;10.80;1.45;;;;;;;;;;5095527;28;20047;-79
2023/03/15 05:54:36;;;;;;;8.10;1.40;;;;;;;;;;5076042;28;20049;-79
2023/03/15 05:57:03;;;;;;;9.18;1.35;;;;;;;;;;5084088;28;20048;-79
2023/03/15 05:59:29;;;;;;;9.23;1.30;;;;;;;;;;5079220;28;20124;-79
2023/03/15 06:01:55;;;;;;;14.88;2.15;;;;;;;;;;5087343;28;20047;-79
2023/03/15 06:04:22;;;;;;;13.63;1.40;;;;;;;;;;5079960;28;20055;-79
2023/03/15 06:06:48;;;;;;;9.77;1.55;;;;;;;;;;5075462;28;20060;-79
2023/03/15 06:09:14;;;;;;;12.57;1.50;;;;;;;;;;5075516;28;20502;-79
2023/03/15 06:11:40;;;;;;;10.75;1.77;;;;;;;;;;5074779;28;20033;-79
2023/03/15 06:14:08;;;;;;;9.45;1.95;;;;;;;;;;5075649;28;20055;-79
2023/03/15 06:16:34;;;;;;;13.43;1.75;;;;;;;;;;5088715;28;20048;-79
2023/03/15 06:19:00;;;;;;;13.18;2.20;;;;;;;;;;5095468;28;20044;-79
2023/03/15 06:21:26;;;;;;;9.95;1.85;;;;;;;;;;5084874;28;20418;-79
2023/03/15 06:23:52;;;;;;;8.90;1.50;;;;;;;;;;5088322;28;20051;-79
2023/03/15 06:26:18;;;;;;;7.63;1.13;;;;;;;;;;5080714;28;20453;-79
2023/03/15 06:28:45;;;;;;;9.50;1.67;;;;;;;;;;5088071;28;20052;-79
2023/03/15 06:31:11;;;;;;;14.15;2.08;;;;;;;;;;5078807;28;20040;-79
2023/03/15 06:33:37;;;;;;;9.15;1.95;;;;;;;;;;5079220;28;20436;-79
2023/03/15 06:36:04;;;;;;;7.43;1.70;;;;;;;;;;5091182;28;20052;-79
2023/03/15 06:38:30;;;;;;;8.70;1.83;;;;;;;;;;5091049;28;20048;-79
2023/03/15 06:40:57;;;;;;;9.50;1.58;;;;;;;;;;5074633;28;20078;-79
2023/03/15 06:43:24;;;;;;;10.60;1.48;;;;;;;;;;5060226;28;20454;-80
2023/03/15 06:45:52;;;;;;;9.50;1.23;;;;;;;;;;5076222;28;20604;-79
2023/03/15 06:48:18;;;;;;;9.98;1.48;;;;;;;;;;5083382;28;20390;-79
2023/03/15 06:50:44;;;;;;;8.88;1.48;;;;;;;;;;5088403;28;20051;-79
2023/03/15 06:53:10;;;;;;;10.30;1.58;;;;;;;;;;5084742;28;20074;-79
2023/03/15 06:55:36;;;;;;;9.93;1.45;;;;;;;;;;5079881;28;20074;-79
2023/03/15 06:58:02;;;;;;;7.47;1.20;;;;;;;;;;5084332;28;20141;-79
2023/03/15 07:00:28;;;;;;;11.55;1.55;;;;;;;;;;5082875;28;20044;-79
2023/03/15 07:02:54;;;;;;;10.18;1.50;;;;;;;;;;5075881;28;20402;-79
2023/03/15 07:05:20;;;;;;;10.18;1.30;;;;;;;;;;5088760;28;20040;-79
2023/03/15 07:07:46;;;;;;;9.05;1.40;;;;;;;;;;5088745;28;20056;-77
2023/03/15 07:10:13;;;;;;;9.05;1.23;;;;;;;;;;5092740;28;20074;-77
2023/03/15 07:12:39;;;;;;;11.55;1.73;;;;;;;;;;5081655;28;20032;-77
2023/03/15 07:15:05;;;;;;;9.85;1.55;;;;;;;;;;5088248;28;20055;-77
2023/03/15 07:17:31;;;;;;;8.45;1.40;;;;;;;;;;5087257;28;20040;-77
2023/03/15 07:19:57;;;;;;;11.75;1.40;;;;;;;;;;5089782;28;20053;-77
2023/03/15 07:22:23;;;;;;;6.85;1.60;;;;;;;;;;5073156;28;20426;-77
2023/03/15 07:24:50;;;;;;;10.93;1.48;;;;;;;;;;5080186;28;20040;-78
2023/03/15 07:27:16;;;;;;;11.48;1.52;;;;;;;;;;5072233;28;20463;-78
2023/03/15 07:29:42;;;;;;;7.97;1.80;;;;;;;;;;5075597;28;20094;-78
2023/03/15 07:32:08;;;;;;;5.95;1.25;;;;;;;;;;5080454;28;20073;-78
2023/03/15 07:34:34;;;;;;;10.13;1.75;;;;;;;;;;5077525;28;20040;-78
2023/03/15 07:37:00;;;;;;;10.93;1.65;;;;;;;;;;5085587;28;20095;-78
2023/03/15 07:39:27;;;;;;;7.82;1.55;;;;;;;;;;5080787;28;20071;-78
2023/03/15 07:41:54;;;;;;;8.13;1.30;;;;;;;;;;5081439;28;20062;-78
2023/03/15 07:44:20;;;;;;;8.57;1.55;;;;;;;;;;5077927;28;20045;-78
2023/03/15 07:46:46;;;;;;;9.27;1.42;;;;;;;;;;5073235;28;20505;-78
2023/03/15 07:49:12;;;;;;;10.82;1.50;;;;;;;;;;5072950;28;20053;-78
2023/03/15 07:51:38;;;;;;;9.18;1.67;;;;;;;;;;5074426;28;20074;-78
2023/03/15 07:54:04;;;;;;;7.18;1.15;;;;;;;;;;5092183;28;20405;-79
2023/03/15 07:56:30;;;;;;;8.90;1.38;;;;;;;;;;5072423;28;20040;-79
2023/03/15 07:58:56;;;;;;;7.25;1.50;;;;;;;;;;5077337;28;20056;-78
2023/03/15 08:01:22;;;;;;;10.88;1.55;;;;;;;;;;5072521;28;20048;-78
2023/03/15 08:03:51;;;;;;;9.85;1.60;;;;;;;;;;5072629;28;20127;-78
2023/03/15 08:06:17;;;;;;;9.65;1.40;;;;;;;;;;5072006;28;20449;-78
2023/03/15 08:08:43;;;;;;;9.90;1.48;;;;;;;;;;5070854;28;20056;-79
2023/03/15 08:11:09;;;;;;;9.27;1.40;;;;;;;;;;5072456;28;20489;-79
2023/03/15 08:13:35;;;;;;;9.05;1.40;;;;;;;;;;5074531;28;20040;-79
2023/03/15 08:16:01;;;;;;;8.93;1.67;;;;;;;;;;5089469;28;20164;-79
2023/03/15 08:18:28;;;;;;;9.70;1.60;;;;;;;;;;5092738;28;20044;-78
2023/03/15 08:20:54;;;;;;;9.30;1.73;;;;;;;;;;5091669;28;20127;-79
2023/03/15 08:23:20;;;;;;;15.75;2.33;;;;;;;;;;5093015;28;20440;-79
2023/03/15 08:25:47;;;;;;;6.80;1.30;;;;;;;;;;5090045;28;20088;-79
2023/03/15 08:28:13;;;;;;;8.90;1.55;;;;;;;;;;5088929;28;20048;-79
2023/03/15 08:30:40;;;;;;;9.13;1.48;;;;;;;;;;5092622;28;20043;-79
2023/03/15 08:33:07;;;;;;;10.52;1.70;;;;;;;;;;5086234;28;20076;-79
2023/03/15 08:35:33;;;;;;;9.70;1.70;;;;;;;;;;5072099;28;20048;-79
2023/03/15 08:38:01;;;;;;;12.05;1.83;;;;;;;;;;5076146;28;20059;-78
2023/03/15 08:40:28;;;;;;;12.32;2.00;;;;;;;;;;5060171;28;20483;-79
2023/03/15 08:42:54;;;;;;;13.32;1.70;;;;;;;;;;5075455;28;20044;-80
2023/03/15 08:45:22;;;;;;;11.93;1.75;;;;;;;;;;5072745;28;20056;-78
2023/03/15 08:47:48;;;;;;;10.75;2.10;;;;;;;;;;5086434;28;20080;-78
2023/03/15 08:50:15;;;;;;;13.02;1.75;;;;;;;;;;5085297;28;20074;-78
2023/03/15 08:52:41;;;;;;;12.10;1.88;;;;;;;;;;5073912;28;20052;-78
2023/03/15 08:55:08;;;;;;;12.65;1.83;;;;;;;;;;5092053;28;20045;-78
2023/03/15 08:57:34;;;;;;;10.20;1.50;;;;;;;;;;5073994;28;20036;-79
2023/03/15 09:00:04;;;;;;;10.13;1.60;;;;;;;;;;5092818;28;20044;-79
2023/03/15 09:02:30;;;;;;;15.18;2.03;;;;;;;;;;5088423;28;20109;-79
2023/03/15 09:04:56;;;;;;;9.07;1.85;;;;;;;;;;5072976;28;20525;-79
2023/03/15 09:07:23;;;;;;;12.57;2.03;;;;;;;;;;5077208;28;20410;-79
2023/03/15 09:09:53;;;;;;;14.10;2.25;;;;;;;;;;5086082;28;20056;-79
2023/03/15 09:12:20;;;;;;;14.35;2.30;;;;;;;;;;5083354;28;20058;-78
2023/03/15 09:14:46;;;;;;;14.02;2.33;;;;;;;;;;5091559;28;20056;-78
2023/03/15 09:17:12;;;;;;;11.48;1.73;;;;;;;;;;5086861;28;20505;-78
2023/03/15 09:19:38;;;;;;;16.50;2.20;;;;;;;;;;5090666;28;20062;-79
2023/03/15 09:22:05;;;;;;;11.93;1.70;;;;;;;;;;5085330;28;20045;-80
2023/03/15 09:24:31;;;;;;;13.30;1.90;;;;;;;;;;5073631;28;20415;-79
2023/03/15 09:26:57;;;;;;;12.85;1.77;;;;;;;;;;5072324;28;20056;-79
2023/03/15 09:29:23;;;;;;;8.27;1.58;;;;;;;;;;5077390;28;20053;-79
2023/03/15 09:31:49;;;;;;;8.93;1.40;;;;;;;;;;5075668;28;20044;-79
2023/03/15 09:34:16;;;;;;;9.20;1.70;;;;;;;;;;5090743;28;20414;-78
2023/03/15 09:36:42;;;;;;;12.82;2.20;;;;;;;;;;5087299;28;20105;-78
2023/03/15 09:39:08;;;;;;;10.88;1.88;;;;;;;;;;5082967;28;20040;-80
2023/03/15 09:41:45;;;;;;;11.50;1.98;;;;;;;;;;5075342;28;20470;-79
2023/03/15 09:44:28;;;;;;;15.35;1.90;;;;;;;;;;5083738;28;20135;-77
2023/03/15 09:46:54;;;;;;;8.48;1.60;;;;;;;;;;5078450;28;20047;-77
2023/03/15 09:49:39;;;;;;;9.20;1.75;;;;;;;;;;5083857;28;20375;-77
2023/03/15 09:52:27;;;;;;;12.27;1.80;;;;;;;;;;5075641;28;20070;-78
2023/03/15 09:55:08;;;;;;;9.07;1.85;;;;;;;;;;5076630;28;20071;-77
2023/03/15 09:57:34;;;;;;;;;;;;;;;;;;5075483;28;20040;-78
2023/03/15 10:00:04;;;;;;;8.80;1.40;;;;;;;;;;5095382;28;19927;-78
2023/03/15 10:02:30;;;;;;;10.40;1.42;;;;;;;;;;5082877;28;20055;-77
2023/03/15 10:05:15;;;;;;;8.45;1.30;;;;;;;;;;5082908;28;20490;-78
2023/03/15 10:07:41;;;;;;;8.00;1.42;;;;;;;;;;5087536;28;20103;-78
2023/03/15 10:10:27;;;;;;;10.88;1.77;;;;;;;;;;5076296;28;20418;-78
2023/03/15 10:13:29;;;;;;;8.57;1.38;;;;;;;;;;5074446;28;20048;-77
2023/03/15 10:15:55;;;;;;;;;;;;;;;;;;5092026;28;20035;-78
2023/03/15 10:18:27;;;;;;;7.93;1.60;;;;;;;;;;5092502;28;20400;-77
2023/03/15 10:20:57;;;;;;;8.90;1.30;;;;;;;;;;5075580;28;20085;-78
2023/03/15 10:23:35;;;;;;;8.75;1.50;;;;;;;;;;5089859;28;20445;-77
2023/03/15 10:26:03;;;;;;;8.85;1.60;;;;;;;;;;5085102;28;20052;-77
2023/03/15 10:28:32;;;;;;;10.40;1.55;;;;;;;;;;5072043;28;20037;-77
2023/03/15 10:31:08;;;;;;;7.28;0.93;;;;;;;;;;5086270;28;20087;-77
2023/03/15 10:33:35;;;;;;;8.65;1.40;;;;;;;;;;5089464;28;20048;-78
2023/03/15 10:36:03;;;;;;;10.27;1.50;;;;;;;;;;5058354;28;20498;-78
2023/03/15 10:38:30;;;;;;;11.43;1.70;;;;;;;;;;5071573;28;20162;-77
2023/03/15 10:40:57;;;;;;;8.57;1.25;;;;;;;;;;5060367;28;20055;-77
2023/03/15 10:43:25;;;;;;;9.98;1.85;;;;;;;;;;5091106;28;20127;-77
2023/03/15 10:46:01;;;;;;;6.78;1.20;;;;;;;;;;5090971;28;20044;-77
2023/03/15 10:48:31;;;;;;;7.22;1.52;;;;;;;;;;5091897;28;20108;-78
2023/03/15 10:51:00;;;;;;;8.70;1.60;;;;;;;;;;5092864;28;20052;-77
2023/03/15 10:53:26;;;;;;;9.82;1.60;;;;;;;;;;5089728;28;20051;-77
2023/03/15 10:56:01;;;;;;;9.55;1.30;;;;;;;;;;5086054;28;20053;-77
2023/03/15 10:58:30;;;;;;;9.25;1.40;;;;;;;;;;5075192;28;20052;-77
2023/03/15 11:01:06;;;;;;;9.95;1.50;;;;;;;;;;5094075;28;20036;-78
2023/03/15 11:03:32;;;;;;;5.80;1.23;;;;;;;;;;5091538;28;20142;-77
2023/03/15 11:05:59;;;;;;;5.13;1.20;;;;;;;;;;5093993;28;20067;-77
2023/03/15 11:08:38;;;;;;;12.05;1.38;;;;;;;;;;5081289;28;20067;-77
2023/03/15 11:11:05;;;;;;;8.65;1.48;;;;;;;;;;5073725;28;20040;-77
2023/03/15 11:13:34;;;;;;;10.15;1.40;;;;;;;;;;5073072;28;20049;-77
2023/03/15 11:16:03;;;;;;;6.85;1.38;;;;;;;;;;5073537;28;20451;-77
2023/03/15 11:18:48;;;;;;;9.38;1.40;;;;;;;;;;5075368;28;20044;-77
2023/03/15 11:21:15;;;;;;;7.30;1.30;;;;;;;;;;5080318;28;20559;-77
2023/03/15 11:23:47;;;;;;;9.27;1.83;;;;;;;;;;5085472;28;20046;-77
2023/03/15 11:26:16;;;;;;;6.07;0.90;;;;;;;;;;5074074;28;20041;-77
2023/03/15 11:28:44;;;;;;;8.38;1.48;;;;;;;;;;5077517;28;20052;-77
2023/03/15 11:31:11;;;;;;;12.43;1.55;;;;;;;;;;5075206;28;20181;-77
2023/03/15 11:33:47;;;;;;;8.57;1.23;;;;;;;;;;5073066;28;20045;-77
2023/03/15 11:36:17;;;;;;;8.05;1.63;;;;;;;;;;5074213;28;20033;-78
2023/03/15 11:38:44;;;;;;;10.07;1.40;;;;;;;;;;5071718;28;20048;-78
2023/03/15 11:41:21;;;;;;;9.95;1.33;;;;;;;;;;5073470;28;20115;-78
2023/03/15 11:43:57;;;;;;;8.40;1.50;;;;;;;;;;5072854;28;20495;-77
2023/03/15 11:46:42;;;;;;;9.02;1.73;;;;;;;;;;5092143;28;20040;-77
2023/03/15 11:49:34;;;;;;;9.00;1.45;;;;;;;;;;5093114;28;20040;-77
2023/03/15 11:52:00;;;;;;;6.85;1.10;;;;;;;;;;5092735;28;20056;-77
2023/03/15 11:54:29;;;;;;;10.05;1.92;;;;;;;;;;5079569;28;20051;-77
2023/03/15 11:57:03;;;;;;;8.10;1.30;;;;;;;;;;5074574;28;20082;-77
2023/03/15 11:59:47;;;;;;;11.43;1.40;;;;;;;;;;5077535;28;20044;-77
2023/03/15 12:02:13;;;;;;;8.93;1.02;;;;;;;;;;5072653;28;20052;-78
2023/03/15 12:04:39;;;;;;;6.45;1.13;;;;;;;;;;5071467;28;20056;-78
2023/03/15 12:07:17;;;;;;;7.10;1.30;;;;;;;;;;5072474;28;20061;-78
2023/03/15 12:09:55;;;;;;;9.85;1.50;;;;;;;;;;5081042;28;20406;-77
2023/03/15 12:12:24;;;;;;;9.05;1.25;;;;;;;;;;5087363;28;20052;-77
2023/03/15 12:15:05;;;;;;;9.02;1.30;;;;;;;;;;5089173;28;20040;-77
2023/03/15 12:17:31;;;;;;;;;;;;;;;;;;5079075;28;20052;-77
2023/03/15 12:20:10;;;;;;;7.80;1.20;;;;;;;;;;5083158;28;20007;-77
2023/03/15 12:22:40;;;;;;;7.70;1.58;;;;;;;;;;5078829;28;20036;-77
2023/03/15 12:25:26;;;;;;;7.13;1.33;;;;;;;;;;5078746;28;20489;-77
2023/03/15 12:27:53;;;;;;;6.00;1.05;;;;;;;;;;5083993;28;20052;-77
2023/03/15 12:30:25;;;;;;;8.90;1.25;;;;;;;;;;5085619;28;20058;-77
2023/03/15 12:32:51;;;;;;;;;;;;;;;;;;5075811;28;20482;-76
2023/03/15 12:35:19;;;;;;;7.43;1.33;;;;;;;;;;5079294;28;19920;-77
2023/03/15 12:37:47;;;;;;;9.13;1.33;;;;;;;;;;5089300;28;20490;-76
2023/03/15 12:40:21;;;;;;;7.53;1.45;;;;;;;;;;5091535;28;20067;-77
2023/03/15 12:42:47;;;;;;;5.65;1.30;;;;;;;;;;5099952;28;20125;-77
2023/03/15 12:45:19;;;;;;;5.22;1.20;;;;;;;;;;5081619;28;20465;-77
2023/03/15 12:47:51;;;;;;;5.80;1.17;;;;;;;;;;5077339;28;20085;-77
2023/03/15 12:50:35;;;;;;;6.38;1.10;;;;;;;;;;5073601;28;20079;-77
2023/03/15 12:53:03;;;;;;;5.65;1.23;;;;;;;;;;5072629;28;20047;-78
2023/03/15 12:55:32;;;;;;;7.30;1.38;;;;;;;;;;5082731;28;20482;-77
2023/03/15 12:57:59;;;;;;;10.05;1.42;;;;;;;;;;5089031;28;20097;-76
2023/03/15 13:00:26;;;;;;;7.53;0.98;;;;;;;;;;5073502;28;20047;-77
2023/03/15 13:02:55;;;;;;;7.38;1.25;;;;;;;;;;5083596;28;20040;-78
2023/03/15 13:05:30;;;;;;;6.90;1.30;;;;;;;;;;5073527;28;20045;-77
2023/03/15 13:07:59;;;;;;;6.70;1.10;;;;;;;;;;5083543;28;20052;-77
2023/03/15 13:10:29;;;;;;;7.07;1.30;;;;;;;;;;5078985;28;20053;-78
2023/03/15 13:12:58;;;;;;;7.38;1.45;;;;;;;;;;5090142;28;20044;-77
2023/03/15 13:15:31;;;;;;;6.88;1.27;;;;;;;;;;5081812;28;20072;-77
2023/03/15 13:17:58;;;;;;;9.00;1.13;;;;;;;;;;5076340;28;20078;-78
2023/03/15 13:20:43;;;;;;;7.57;1.48;;;;;;;;;;5089216;28;20047;-77
2023/03/15 13:23:09;;;;;;;7.97;1.13;;;;;;;;;;5075800;28;20044;-77
2023/03/15 13:25:52;;;;;;;6.28;1.10;;;;;;;;;;5074464;28;20098;-78
2023/03/15 13:28:35;;;;;;;5.85;1.27;;;;;;;;;;5076036;28;20521;-78
2023/03/15 13:31:09;;;;;;;6.38;1.30;;;;;;;;;;5075073;28;20088;-78
2023/03/15 13:33:35;;;;;;;8.80;1.23;;;;;;;;;;5076414;28;20107;-78
2023/03/15 13:36:04;;;;;;;6.90;1.00;;;;;;;;;;5077453;28;20128;-77
2023/03/15 13:38:32;;;;;;;5.88;0.95;;;;;;;;;;5074709;28;20402;-78
2023/03/15 13:41:00;;;;;;;5.38;1.08;;;;;;;;;;5091727;28;20050;-78
2023/03/15 13:43:28;;;;;;;5.97;1.17;;;;;;;;;;5094704;28;20052;-78
2023/03/15 13:45:56;;;;;;;6.97;1.00;;;;;;;;;;5075973;28;20049;-77
2023/03/15 13:48:23;;;;;;;6.82;1.00;;;;;;;;;;5078604;28;20048;-78
2023/03/15 13:50:49;;;;;;;8.43;1.58;;;;;;;;;;5077806;28;20044;-77
2023/03/15 13:53:22;;;;;;;9.80;1.40;;;;;;;;;;5077708;28;20051;-77
2023/03/15 13:55:50;;;;;;;6.45;1.10;;;;;;;;;;5080246;28;20048;-78
2023/03/15 13:58:16;;;;;;;5.22;0.90;;;;;;;;;;5077626;28;20173;-77
2023/03/15 14:00:42;;;;;;;6.57;1.02;;;;;;;;;;5077574;28;20490;-77
2023/03/15 14:03:12;;;;;;;5.22;1.38;;;;;;;;;;5081701;28;20047;-77
2023/03/15 14:05:49;;;;;;;7.40;1.20;;;;;;;;;;5076176;28;20460;-77
2023/03/15 14:08:24;;;;;;;6.15;1.52;;;;;;;;;;5094077;28;20059;-79
2023/03/15 14:10:59;;;;;;;8.02;1.30;;;;;;;;;;5083553;28;20065;-78
2023/03/15 14:13:25;;;;;;;4.75;1.10;;;;;;;;;;5094403;28;20044;-78
2023/03/15 14:15:55;;;;;;;7.80;1.10;;;;;;;;;;5087201;28;20042;-78
2023/03/15 14:18:23;;;;;;;4.95;1.10;;;;;;;;;;5082061;28;20041;-78
2023/03/15 14:21:00;;;;;;;5.57;1.17;;;;;;;;;;5077020;28;20352;-78
2023/03/15 14:23:27;;;;;;;5.72;1.17;;;;;;;;;;5075464;28;20039;-78
2023/03/15 14:25:55;;;;;;;8.13;1.35;;;;;;;;;;5085669;28;20078;-78
2023/03/15 14:28:23;;;;;;;4.47;1.30;;;;;;;;;;5081280;28;20052;-78
2023/03/15 14:30:53;;;;;;;6.18;1.15;;;;;;;;;;5083890;28;20040;-77
2023/03/15 14:33:43;;;;;;;6.70;1.47;;;;;;;;;;5076759;28;20486;-77
2023/03/15 14:36:21;;;;;;;5.75;1.10;;;;;;;;;;5083646;28;20063;-77
2023/03/15 14:38:54;;;;;;;7.60;1.30;;;;;;;;;;5077668;28;20055;-77
2023/03/15 14:41:24;;;;;;;6.05;1.00;;;;;;;;;;5088917;28;20402;-78
2023/03/15 14:43:50;;;;;;;4.78;1.20;;;;;;;;;;5082245;28;20418;-78
2023/03/15 14:46:16;;;;;;;7.20;1.35;;;;;;;;;;5080833;28;20071;-77